Карточка аэропорта USTR

Внимание!
Информация на этой странице в стадии наполнения.
Если вы не увидели какой-то информации, или заметили неточность - пожалуйста сообщите нам!
Спасибо!
Команда RU-STAFF
Название аэропортаРощино
Название аэропорта (англ.)Roshschino
Превышение378 ft. (115.2 m.)
Координаты57°10.098', 65°19.002'
Высота перехода700m
Эшелон переходаFL040
Коды ответчика5101-5137
Зона ОрВДТюмень РПИ (USTV)
Данные METARUSTR 152230Z 26003MPS CAVOK 06/06 Q1022 R21/CLRD65 R30/////99 TEMPO 2000 BR SCT005
Проноз погоды (TAF)USTR 151959Z 1521/1621 25003G08MPS 3100 BR SCT005 SCT016 TEMPO 1521/1602 VRB01MPS 0200 FG VV002 FM160300 27005G12MPS 9999 BKN020 BECMG 1605/1607 33006G14MPS TEMPO 1607/1615 35014MPS 4000 -SHRA BKN020CB BECMG 1615/1617 33004G09MPS
NOTAMshow/hide NOTAM
AWOS   TABLE

Информация о ВПП

ВПП Длина ВПП (м.) Покрытие Курс ВПП Частота ILS
033003Асфальтобетон34108.3
122704Асфальтобетон121 
213003Асфальтобетон214110.7
302704Асфальтобетон301 

Диспетчерские позиции

Позывной Наименование органа УВД Частота
USTR_GNDТюмень-Руление119.000
USTR_TWRТюмень-Старт118.200
USTR_R_APPТюмень-Круг126.100



Спутниковое изображение